Walnut Springs, TX (76690)

5:04 PM CDT on September 02, 2014 (GMT -0500)
Harris 424 Ranch | Change Station
CLOSE
Current Station
Personal Weather Station
Location: Walnut Springs, TX
Elevation: 810 ft
Nearby Weather Stations

Elev 810 ft 32.13 °N, 97.67 °W | Updated 40 seconds ago

Partly Cloudy
Partly Cloudy
93.8 °F
Feels Like 99 °F
N
7.0
Wind Variable Wind from SE
Gusts 12.0 mph

Today
High -- | Low -- °F
--% Chance of Precip.
Yesterday
High -- | Low -- °F
Precip. -- in
7:06 AM 7:53 PM
First Quarter, 55% visible
Pressure 29.94 in
Visibility 10.0 miles
Clouds Clear
Heat Index 99 °F
Dew Point 69 °F
Humidity 44%
Rainfall 0.00 in
Snow Depth Not available.
UV 5 out of 12
Pollen 10.20 out of 12
Ozone Good
PM2.5 Good
Flu Activity Not available.
METAR KSEP 022155Z AUTO 17010KT 10SM CLR 35/17 A2994 RMK AO2 T03460173

More Conditions Fewer Conditions

Pressure 29.94 in
Visibility 10.0 miles
Clouds Clear
Heat Index 99 °F
Dew Point 69 °F
Humidity 44%
Rainfall 0.00 in
Snow Depth Not available.
UV 5 out of 12
Pollen 10.20 out of 12
Ozone Good
PM2.5 Good
Flu Activity Not available.
METAR KSEP 022155Z AUTO 17010KT 10SM CLR 35/17 A2994 RMK AO2 T03460173

More Conditions Fewer Conditions

Nowcast | as of 4:33 PM CDT on September 2, 2014

Isolated showers and thunderstorms were along and south of a Canton...to Hillsboro...to Comanche line and were slowly drifting north around 10 mph. Any thunderstorm this afternoon will be capable of producing brief periods of heavy rain...cloud to ground lightning...and gusty winds. Otherwise...skies range from partly to mostly sunny across much of north and central Texas. Temperatures were in the 90s with southeasterly winds around 15 mph.

×

10-Day Weather Forecast

Almanac

Astronomy

Sep. 02, 2014 Rise Set
Actual Time 7:06 AM CDT 7:53 PM CDT
Civil Twilight 6:42 AM CDT 8:18 PM CDT
Nautical Twilight 6:12 AM CDT 8:47 PM CDT
Astronomical Twilight 5:42 AM CDT 9:17 PM CDT
Moon 2:27 PM CDT 12:21 AM CDT
Length of Visible Light 13h 36m
Length of Day
12h 46m
Tomorrow will be 1m 53s shorter.
First Quarter, 55% of the Moon is Illuminated
Today
First Quarter
Sep 8
Full
Sep 15
Last Quarter
Sep 24
New
Oct 1
First Quarter

Today's Extremes

State Highs State Lows

Community

WunderPhotos

Upload Photos

1,749,782 photos uploaded!

Nearby

Air Quality

  Air Quality AQ Index Pollutant
Yesterday Good
PM2.5
Yesterday Good
OZONE
Current Good
OZONE
Current Good
PM2.5
Tuesday Good
PM10
Tuesday Good
OZONE
Wednesday Good
PM10
Wednesday Good
OZONE
Thursday Good
PM10
Thursday Good
OZONE
Friday Good
PM10
Friday Good
OZONE

Snow Depth

Station Depth Elevation
No new snow has been reported.

Earthquake Activity

City Distance Mag. Time & Date
No recent earthquake activity has been reported nearby.
Minimum magnitude displayed is 2.5.

Coastal Water Temperatures

Place Temperature
No Stations Reporting

Nearby Weather Stations